sensor_id;sensor_type;location;lat;lon;timestamp;P1;durP1;ratioP1;P2;durP2;ratioP2
45863;SDS011;31579;52.354;16.974;2023-03-25T00:03:29;15.90;;;8.40;;
45863;SDS011;31579;52.354;16.974;2023-03-25T00:08:28;18.40;;;8.80;;
45863;SDS011;31579;52.354;16.974;2023-03-25T00:13:29;18.40;;;8.80;;
45863;SDS011;31579;52.354;16.974;2023-03-25T00:18:29;19.30;;;10.10;;
45863;SDS011;31579;52.354;16.974;2023-03-25T00:23:29;19.30;;;10.10;;
45863;SDS011;31579;52.354;16.974;2023-03-25T00:28:32;16.80;;;9.80;;
45863;SDS011;31579;52.354;16.974;2023-03-25T00:33:28;16.80;;;9.80;;
45863;SDS011;31579;52.354;16.974;2023-03-25T00:38:29;22.70;;;11.40;;
45863;SDS011;31579;52.354;16.974;2023-03-25T00:43:28;22.70;;;11.40;;
45863;SDS011;31579;52.354;16.974;2023-03-25T00:48:28;21.70;;;12.10;;
45863;SDS011;31579;52.354;16.974;2023-03-25T00:53:39;21.70;;;12.10;;
45863;SDS011;31579;52.354;16.974;2023-03-25T00:54:56;21.70;;;12.10;;
45863;SDS011;31579;52.354;16.974;2023-03-25T00:59:55;18.40;;;9.50;;
45863;SDS011;31579;52.354;16.974;2023-03-25T01:04:55;18.40;;;9.50;;
45863;SDS011;31579;52.354;16.974;2023-03-25T01:09:55;16.80;;;8.80;;
45863;SDS011;31579;52.354;16.974;2023-03-25T01:14:55;16.80;;;8.80;;
45863;SDS011;31579;52.354;16.974;2023-03-25T01:19:55;16.30;;;8.40;;
45863;SDS011;31579;52.354;16.974;2023-03-25T01:24:55;16.30;;;8.40;;
45863;SDS011;31579;52.354;16.974;2023-03-25T01:29:55;24.90;;;11.80;;
45863;SDS011;31579;52.354;16.974;2023-03-25T01:34:55;24.90;;;11.80;;
45863;SDS011;31579;52.354;16.974;2023-03-25T01:39:58;14.00;;;7.30;;
45863;SDS011;31579;52.354;16.974;2023-03-25T01:49:55;13.70;;;6.90;;
45863;SDS011;31579;52.354;16.974;2023-03-25T01:54:55;13.70;;;6.90;;
45863;SDS011;31579;52.354;16.974;2023-03-25T01:59:55;13.00;;;7.00;;
45863;SDS011;31579;52.354;16.974;2023-03-25T02:04:58;13.00;;;7.00;;
45863;SDS011;31579;52.354;16.974;2023-03-25T02:09:53;13.60;;;7.20;;
45863;SDS011;31579;52.354;16.974;2023-03-25T02:14:26;13.60;;;7.20;;
45863;SDS011;31579;52.354;16.974;2023-03-25T02:19:34;13.60;;;7.20;;
45863;SDS011;31579;52.354;16.974;2023-03-25T02:44:35;16.70;;;8.20;;
45863;SDS011;31579;52.354;16.974;2023-03-25T02:49:26;14.50;;;6.90;;
45863;SDS011;31579;52.354;16.974;2023-03-25T02:54:24;14.50;;;6.90;;
45863;SDS011;31579;52.354;16.974;2023-03-25T02:59:27;14.10;;;7.20;;
45863;SDS011;31579;52.354;16.974;2023-03-25T03:04:24;14.10;;;7.20;;
45863;SDS011;31579;52.354;16.974;2023-03-25T03:29:26;17.30;;;8.50;;
45863;SDS011;31579;52.354;16.974;2023-03-25T03:34:27;17.30;;;8.50;;
45863;SDS011;31579;52.354;16.974;2023-03-25T03:39:25;17.10;;;7.80;;
45863;SDS011;31579;52.354;16.974;2023-03-25T03:44:34;17.10;;;7.80;;
45863;SDS011;31579;52.354;16.974;2023-03-25T03:49:34;17.80;;;7.80;;
45863;SDS011;31579;52.354;16.974;2023-03-25T03:54:34;17.80;;;7.80;;
45863;SDS011;31579;52.354;16.974;2023-03-25T04:04:32;14.70;;;7.40;;
45863;SDS011;31579;52.354;16.974;2023-03-25T04:09:35;11.90;;;6.70;;
45863;SDS011;31579;52.354;16.974;2023-03-25T04:14:37;11.90;;;6.70;;
45863;SDS011;31579;52.354;16.974;2023-03-25T04:19:32;14.30;;;7.20;;
45863;SDS011;31579;52.354;16.974;2023-03-25T04:24:32;14.30;;;7.20;;
45863;SDS011;31579;52.354;16.974;2023-03-25T04:29:34;13.80;;;7.10;;
45863;SDS011;31579;52.354;16.974;2023-03-25T04:34:32;13.80;;;7.10;;
45863;SDS011;31579;52.354;16.974;2023-03-25T04:39:32;12.00;;;6.50;;
45863;SDS011;31579;52.354;16.974;2023-03-25T04:44:32;12.00;;;6.50;;
45863;SDS011;31579;52.354;16.974;2023-03-25T04:49:32;14.90;;;7.50;;
45863;SDS011;31579;52.354;16.974;2023-03-25T04:54:32;14.90;;;7.50;;
45863;SDS011;31579;52.354;16.974;2023-03-25T04:59:32;16.80;;;7.70;;
45863;SDS011;31579;52.354;16.974;2023-03-25T05:04:32;16.80;;;7.70;;
45863;SDS011;31579;52.354;16.974;2023-03-25T05:09:32;13.50;;;7.00;;
45863;SDS011;31579;52.354;16.974;2023-03-25T05:14:32;13.50;;;7.00;;
45863;SDS011;31579;52.354;16.974;2023-03-25T05:19:32;15.20;;;7.70;;
45863;SDS011;31579;52.354;16.974;2023-03-25T05:24:32;15.20;;;7.70;;
45863;SDS011;31579;52.354;16.974;2023-03-25T05:29:32;13.90;;;6.80;;
45863;SDS011;31579;52.354;16.974;2023-03-25T05:34:36;13.90;;;6.80;;
45863;SDS011;31579;52.354;16.974;2023-03-25T05:39:32;13.60;;;6.70;;
45863;SDS011;31579;52.354;16.974;2023-03-25T05:44:32;13.60;;;6.70;;
45863;SDS011;31579;52.354;16.974;2023-03-25T05:49:33;13.70;;;6.60;;
45863;SDS011;31579;52.354;16.974;2023-03-25T05:54:32;13.70;;;6.60;;
45863;SDS011;31579;52.354;16.974;2023-03-25T05:59:32;14.00;;;6.50;;
45863;SDS011;31579;52.354;16.974;2023-03-25T06:04:34;14.00;;;6.50;;
45863;SDS011;31579;52.354;16.974;2023-03-25T06:09:32;12.20;;;6.50;;
45863;SDS011;31579;52.354;16.974;2023-03-25T06:14:33;12.20;;;6.50;;
45863;SDS011;31579;52.354;16.974;2023-03-25T06:19:32;13.20;;;6.10;;
45863;SDS011;31579;52.354;16.974;2023-03-25T06:24:32;13.20;;;6.10;;
45863;SDS011;31579;52.354;16.974;2023-03-25T06:26:53;13.10;;;6.10;;
45863;SDS011;31579;52.354;16.974;2023-03-25T06:34:05;13.10;;;6.10;;
45863;SDS011;31579;52.354;16.974;2023-03-25T06:39:05;11.60;;;6.00;;
45863;SDS011;31579;52.354;16.974;2023-03-25T06:44:05;11.60;;;6.00;;
45863;SDS011;31579;52.354;16.974;2023-03-25T06:49:06;13.00;;;5.40;;
45863;SDS011;31579;52.354;16.974;2023-03-25T06:54:05;13.00;;;5.40;;
45863;SDS011;31579;52.354;16.974;2023-03-25T06:59:07;11.40;;;5.20;;
45863;SDS011;31579;52.354;16.974;2023-03-25T07:04:06;11.40;;;5.20;;
45863;SDS011;31579;52.354;16.974;2023-03-25T07:09:06;12.50;;;5.30;;
45863;SDS011;31579;52.354;16.974;2023-03-25T07:14:06;12.50;;;5.30;;
45863;SDS011;31579;52.354;16.974;2023-03-25T07:19:06;11.30;;;4.80;;
45863;SDS011;31579;52.354;16.974;2023-03-25T07:24:06;11.30;;;4.80;;
45863;SDS011;31579;52.354;16.974;2023-03-25T07:32:06;10.10;;;4.40;;
45863;SDS011;31579;52.354;16.974;2023-03-25T07:37:06;14.50;;;4.30;;
45863;SDS011;31579;52.354;16.974;2023-03-25T07:42:06;14.50;;;4.30;;
45863;SDS011;31579;52.354;16.974;2023-03-25T07:47:06;9.80;;;3.70;;
45863;SDS011;31579;52.354;16.974;2023-03-25T07:52:06;9.80;;;3.70;;
45863;SDS011;31579;52.354;16.974;2023-03-25T07:57:08;8.20;;;3.40;;
45863;SDS011;31579;52.354;16.974;2023-03-25T08:02:08;8.20;;;3.40;;
45863;SDS011;31579;52.354;16.974;2023-03-25T08:07:06;7.00;;;3.10;;
45863;SDS011;31579;52.354;16.974;2023-03-25T08:12:05;7.00;;;3.10;;
45863;SDS011;31579;52.354;16.974;2023-03-25T08:17:04;10.20;;;3.60;;
45863;SDS011;31579;52.354;16.974;2023-03-25T08:22:03;10.20;;;3.60;;
45863;SDS011;31579;52.354;16.974;2023-03-25T08:27:03;8.60;;;3.40;;
45863;SDS011;31579;52.354;16.974;2023-03-25T08:32:03;8.60;;;3.40;;
45863;SDS011;31579;52.354;16.974;2023-03-25T08:37:03;9.40;;;4.00;;
45863;SDS011;31579;52.354;16.974;2023-03-25T08:42:07;9.40;;;4.00;;
45863;SDS011;31579;52.354;16.974;2023-03-25T08:47:04;9.40;;;3.90;;
45863;SDS011;31579;52.354;16.974;2023-03-25T08:52:03;9.40;;;3.90;;
45863;SDS011;31579;52.354;16.974;2023-03-25T08:57:04;7.70;;;3.20;;
45863;SDS011;31579;52.354;16.974;2023-03-25T09:07:23;5.10;;;2.70;;
45863;SDS011;31579;52.354;16.974;2023-03-25T09:12:21;5.10;;;2.70;;
45863;SDS011;31579;52.354;16.974;2023-03-25T09:17:21;6.00;;;3.50;;
45863;SDS011;31579;52.354;16.974;2023-03-25T09:22:21;6.00;;;3.50;;
45863;SDS011;31579;52.354;16.974;2023-03-25T09:27:21;7.20;;;2.60;;
45863;SDS011;31579;52.354;16.974;2023-03-25T09:32:21;7.20;;;2.60;;
45863;SDS011;31579;52.354;16.974;2023-03-25T09:37:21;7.40;;;2.40;;
45863;SDS011;31579;52.354;16.974;2023-03-25T09:47:21;5.50;;;1.90;;
45863;SDS011;31579;52.354;16.974;2023-03-25T09:52:23;5.50;;;1.90;;
45863;SDS011;31579;52.354;16.974;2023-03-25T09:57:21;5.00;;;1.40;;
45863;SDS011;31579;52.354;16.974;2023-03-25T10:06:12;4.40;;;1.50;;
45863;SDS011;31579;52.354;16.974;2023-03-25T10:21:08;4.10;;;1.40;;
45863;SDS011;31579;52.354;16.974;2023-03-25T10:26:05;4.00;;;1.70;;
45863;SDS011;31579;52.354;16.974;2023-03-25T10:31:03;4.00;;;1.70;;
45863;SDS011;31579;52.354;16.974;2023-03-25T10:35:03;6.40;;;1.90;;
45863;SDS011;31579;52.354;16.974;2023-03-25T10:45:01;5.90;;;1.60;;
45863;SDS011;31579;52.354;16.974;2023-03-25T10:50:01;5.90;;;1.60;;
45863;SDS011;31579;52.354;16.974;2023-03-25T10:54:29;4.40;;;1.10;;
45863;SDS011;31579;52.354;16.974;2023-03-25T11:04:37;2.90;;;0.80;;
45863;SDS011;31579;52.354;16.974;2023-03-25T11:09:26;2.90;;;0.80;;
45863;SDS011;31579;52.354;16.974;2023-03-25T11:14:25;3.80;;;0.50;;
45863;SDS011;31579;52.354;16.974;2023-03-25T11:19:26;3.80;;;0.50;;
45863;SDS011;31579;52.354;16.974;2023-03-25T11:22:17;3.80;;;0.50;;
45863;SDS011;31579;52.354;16.974;2023-03-25T11:32:14;3.70;;;0.70;;
45863;SDS011;31579;52.354;16.974;2023-03-25T11:37:16;3.10;;;0.70;;
45863;SDS011;31579;52.354;16.974;2023-03-25T11:47:14;5.50;;;1.70;;
45863;SDS011;31579;52.354;16.974;2023-03-25T11:52:17;5.50;;;1.70;;
45863;SDS011;31579;52.354;16.974;2023-03-25T11:57:16;5.20;;;2.00;;
45863;SDS011;31579;52.354;16.974;2023-03-25T12:02:20;5.20;;;2.00;;
45863;SDS011;31579;52.354;16.974;2023-03-25T12:07:14;5.50;;;2.20;;
45863;SDS011;31579;52.354;16.974;2023-03-25T12:35:07;3.10;;;1.20;;
45863;SDS011;31579;52.354;16.974;2023-03-25T12:50:10;8.00;;;1.40;;
45863;SDS011;31579;52.354;16.974;2023-03-25T13:05:04;3.70;;;1.20;;
45863;SDS011;31579;52.354;16.974;2023-03-25T13:20:03;4.10;;;1.10;;
45863;SDS011;31579;52.354;16.974;2023-03-25T13:25:04;4.00;;;1.00;;
45863;SDS011;31579;52.354;16.974;2023-03-25T13:30:03;4.00;;;1.00;;
45863;SDS011;31579;52.354;16.974;2023-03-25T13:45:03;3.60;;;1.00;;
45863;SDS011;31579;52.354;16.974;2023-03-25T14:15:08;5.50;;;1.60;;
45863;SDS011;31579;52.354;16.974;2023-03-25T14:20:04;5.50;;;1.60;;
45863;SDS011;31579;52.354;16.974;2023-03-25T14:25:03;6.80;;;2.10;;
45863;SDS011;31579;52.354;16.974;2023-03-25T14:30:04;6.80;;;2.10;;
45863;SDS011;31579;52.354;16.974;2023-03-25T14:30:21;6.80;;;2.10;;
45863;SDS011;31579;52.354;16.974;2023-03-25T14:50:28;2.60;;;0.80;;
45863;SDS011;31579;52.354;16.974;2023-03-25T15:05:22;5.20;;;2.10;;
45863;SDS011;31579;52.354;16.974;2023-03-25T15:11:04;5.20;;;2.10;;
45863;SDS011;31579;52.354;16.974;2023-03-25T15:16:00;5.10;;;1.70;;
45863;SDS011;31579;52.354;16.974;2023-03-25T15:25:59;4.40;;;1.70;;
45863;SDS011;31579;52.354;16.974;2023-03-25T15:41:01;5.80;;;1.50;;
45863;SDS011;31579;52.354;16.974;2023-03-25T15:56:00;5.40;;;1.90;;
45863;SDS011;31579;52.354;16.974;2023-03-25T16:01:05;5.40;;;1.90;;
45863;SDS011;31579;52.354;16.974;2023-03-25T16:05:59;4.40;;;1.80;;
45863;SDS011;31579;52.354;16.974;2023-03-25T16:15:59;4.70;;;1.80;;
45863;SDS011;31579;52.354;16.974;2023-03-25T16:20:59;4.70;;;1.80;;
45863;SDS011;31579;52.354;16.974;2023-03-25T16:25:59;5.20;;;2.00;;
45863;SDS011;31579;52.354;16.974;2023-03-25T16:30:59;5.20;;;2.00;;
45863;SDS011;31579;52.354;16.974;2023-03-25T16:36:01;4.80;;;1.70;;
45863;SDS011;31579;52.354;16.974;2023-03-25T16:41:00;4.80;;;1.70;;
45863;SDS011;31579;52.354;16.974;2023-03-25T16:45:59;5.30;;;1.70;;
45863;SDS011;31579;52.354;16.974;2023-03-25T17:01:07;9.90;;;3.50;;
45863;SDS011;31579;52.354;16.974;2023-03-25T17:06:00;7.90;;;2.80;;
45863;SDS011;31579;52.354;16.974;2023-03-25T17:10:59;7.90;;;2.80;;
45863;SDS011;31579;52.354;16.974;2023-03-25T17:15:59;7.20;;;2.70;;
45863;SDS011;31579;52.354;16.974;2023-03-25T17:20:59;7.20;;;2.70;;
45863;SDS011;31579;52.354;16.974;2023-03-25T17:26:00;65.10;;;30.90;;
45863;SDS011;31579;52.354;16.974;2023-03-25T17:30:59;65.10;;;30.90;;
45863;SDS011;31579;52.354;16.974;2023-03-25T17:35:59;13.60;;;6.70;;
45863;SDS011;31579;52.354;16.974;2023-03-25T17:40:59;13.60;;;6.70;;
45863;SDS011;31579;52.354;16.974;2023-03-25T17:45:59;9.10;;;4.20;;
45863;SDS011;31579;52.354;16.974;2023-03-25T17:50:59;9.10;;;4.20;;
45863;SDS011;31579;52.354;16.974;2023-03-25T17:55:59;9.10;;;4.50;;
45863;SDS011;31579;52.354;16.974;2023-03-25T18:00:59;9.10;;;4.50;;
45863;SDS011;31579;52.354;16.974;2023-03-25T18:05:59;8.80;;;3.70;;
45863;SDS011;31579;52.354;16.974;2023-03-25T18:10:59;8.80;;;3.70;;
45863;SDS011;31579;52.354;16.974;2023-03-25T18:15:59;9.50;;;4.60;;
45863;SDS011;31579;52.354;16.974;2023-03-25T18:21:01;9.50;;;4.60;;
45863;SDS011;31579;52.354;16.974;2023-03-25T18:25:59;8.20;;;4.00;;
45863;SDS011;31579;52.354;16.974;2023-03-25T18:30:59;8.20;;;4.00;;
45863;SDS011;31579;52.354;16.974;2023-03-25T18:35:59;7.10;;;3.10;;
45863;SDS011;31579;52.354;16.974;2023-03-25T18:40:59;7.10;;;3.10;;
45863;SDS011;31579;52.354;16.974;2023-03-25T18:45:59;5.90;;;2.40;;
45863;SDS011;31579;52.354;16.974;2023-03-25T18:50:59;5.90;;;2.40;;
45863;SDS011;31579;52.354;16.974;2023-03-25T18:55:07;8.10;;;3.70;;
45863;SDS011;31579;52.354;16.974;2023-03-25T19:00:10;8.10;;;3.70;;
45863;SDS011;31579;52.354;16.974;2023-03-25T19:05:05;11.20;;;4.90;;
45863;SDS011;31579;52.354;16.974;2023-03-25T19:14:15;9.40;;;4.10;;
45863;SDS011;31579;52.354;16.974;2023-03-25T19:19:15;9.40;;;4.10;;
45863;SDS011;31579;52.354;16.974;2023-03-25T19:24:15;6.20;;;2.40;;
45863;SDS011;31579;52.354;16.974;2023-03-25T19:29:15;6.20;;;2.40;;
45863;SDS011;31579;52.354;16.974;2023-03-25T19:34:15;15.40;;;6.80;;
45863;SDS011;31579;52.354;16.974;2023-03-25T19:39:18;15.40;;;6.80;;
45863;SDS011;31579;52.354;16.974;2023-03-25T19:44:15;17.10;;;7.00;;
45863;SDS011;31579;52.354;16.974;2023-03-25T19:51:45;17.10;;;7.00;;
45863;SDS011;31579;52.354;16.974;2023-03-25T19:56:45;9.00;;;3.70;;
45863;SDS011;31579;52.354;16.974;2023-03-25T20:01:45;9.00;;;3.70;;
45863;SDS011;31579;52.354;16.974;2023-03-25T20:06:45;18.60;;;7.00;;
45863;SDS011;31579;52.354;16.974;2023-03-25T20:11:45;18.60;;;7.00;;
45863;SDS011;31579;52.354;16.974;2023-03-25T20:16:48;12.80;;;5.30;;
45863;SDS011;31579;52.354;16.974;2023-03-25T20:21:15;12.80;;;5.30;;
45863;SDS011;31579;52.354;16.974;2023-03-25T20:26:14;10.10;;;4.10;;
45863;SDS011;31579;52.354;16.974;2023-03-25T20:31:24;10.10;;;4.10;;
45863;SDS011;31579;52.354;16.974;2023-03-25T20:36:22;10.20;;;4.40;;
45863;SDS011;31579;52.354;16.974;2023-03-25T20:41:22;10.20;;;4.40;;
45863;SDS011;31579;52.354;16.974;2023-03-25T20:46:26;8.30;;;3.70;;
45863;SDS011;31579;52.354;16.974;2023-03-25T20:51:22;8.30;;;3.70;;
45863;SDS011;31579;52.354;16.974;2023-03-25T20:56:22;7.90;;;3.30;;
45863;SDS011;31579;52.354;16.974;2023-03-25T21:01:22;7.90;;;3.30;;
45863;SDS011;31579;52.354;16.974;2023-03-25T21:06:22;7.10;;;2.70;;
45863;SDS011;31579;52.354;16.974;2023-03-25T21:11:22;7.10;;;2.70;;
45863;SDS011;31579;52.354;16.974;2023-03-25T21:16:22;6.20;;;2.60;;
45863;SDS011;31579;52.354;16.974;2023-03-25T21:21:22;6.20;;;2.60;;
45863;SDS011;31579;52.354;16.974;2023-03-25T21:26:22;9.00;;;3.50;;
45863;SDS011;31579;52.354;16.974;2023-03-25T21:31:22;9.00;;;3.50;;
45863;SDS011;31579;52.354;16.974;2023-03-25T21:36:24;6.00;;;2.30;;
45863;SDS011;31579;52.354;16.974;2023-03-25T21:41:22;6.00;;;2.30;;
45863;SDS011;31579;52.354;16.974;2023-03-25T21:46:22;7.40;;;2.90;;
45863;SDS011;31579;52.354;16.974;2023-03-25T21:51:22;7.40;;;2.90;;
45863;SDS011;31579;52.354;16.974;2023-03-25T21:56:22;7.70;;;3.20;;
45863;SDS011;31579;52.354;16.974;2023-03-25T22:01:24;7.70;;;3.20;;
45863;SDS011;31579;52.354;16.974;2023-03-25T22:06:26;7.40;;;3.00;;
45863;SDS011;31579;52.354;16.974;2023-03-25T22:10:39;7.40;;;3.00;;
45863;SDS011;31579;52.354;16.974;2023-03-25T22:15:37;8.40;;;3.50;;
45863;SDS011;31579;52.354;16.974;2023-03-25T22:20:37;8.40;;;3.50;;
45863;SDS011;31579;52.354;16.974;2023-03-25T22:25:37;6.80;;;3.30;;
45863;SDS011;31579;52.354;16.974;2023-03-25T22:30:37;6.80;;;3.30;;
45863;SDS011;31579;52.354;16.974;2023-03-25T22:35:37;7.70;;;3.70;;
45863;SDS011;31579;52.354;16.974;2023-03-25T22:40:40;7.70;;;3.70;;
45863;SDS011;31579;52.354;16.974;2023-03-25T22:46:04;8.30;;;3.00;;
45863;SDS011;31579;52.354;16.974;2023-03-25T22:51:02;8.30;;;3.00;;
45863;SDS011;31579;52.354;16.974;2023-03-25T22:56:03;8.30;;;3.30;;
45863;SDS011;31579;52.354;16.974;2023-03-25T23:01:03;8.30;;;3.30;;
45863;SDS011;31579;52.354;16.974;2023-03-25T23:06:06;8.40;;;3.10;;
45863;SDS011;31579;52.354;16.974;2023-03-25T23:16:07;7.50;;;2.80;;
45863;SDS011;31579;52.354;16.974;2023-03-25T23:21:02;7.50;;;2.80;;
45863;SDS011;31579;52.354;16.974;2023-03-25T23:31:07;8.10;;;3.10;;
45863;SDS011;31579;52.354;16.974;2023-03-25T23:36:03;8.80;;;2.80;;
45863;SDS011;31579;52.354;16.974;2023-03-25T23:41:05;8.80;;;2.80;;
45863;SDS011;31579;52.354;16.974;2023-03-25T23:46:03;6.60;;;2.70;;
45863;SDS011;31579;52.354;16.974;2023-03-25T23:51:02;6.60;;;2.70;;
45863;SDS011;31579;52.354;16.974;2023-03-25T23:56:03;8.10;;;3.10;;
